createdAt,value
2022-09-06T00:00:26.722Z,9.81
2022-09-06T00:02:36.542Z,9.75
2022-09-06T00:04:39.215Z,9.72
2022-09-06T00:06:41.840Z,9.68
2022-09-06T00:08:45.978Z,9.67
2022-09-06T00:10:48.645Z,9.66
2022-09-06T00:12:51.276Z,9.66
2022-09-06T00:14:54.438Z,9.66
2022-09-06T00:16:57.064Z,9.63
2022-09-06T00:18:59.764Z,9.62
2022-09-06T00:21:03.865Z,9.59
2022-09-06T00:23:06.462Z,9.53
2022-09-06T00:25:09.575Z,9.62
2022-09-06T00:27:13.168Z,9.63
2022-09-06T00:29:15.827Z,9.63
2022-09-06T00:31:21.635Z,9.67
2022-09-06T00:33:25.003Z,9.68
2022-09-06T00:35:28.715Z,9.72
2022-09-06T00:37:31.367Z,9.73
2022-09-06T00:39:33.959Z,9.74
2022-09-06T00:41:36.798Z,9.72
2022-09-06T00:43:40.420Z,9.76
2022-09-06T00:45:43.122Z,9.81
2022-09-06T00:47:46.379Z,9.87
2022-09-06T00:49:54.047Z,9.90
2022-09-06T00:52:02.172Z,9.91
2022-09-06T00:54:06.788Z,9.90
2022-09-06T00:56:09.620Z,9.89
2022-09-06T00:58:13.182Z,9.88
2022-09-06T01:00:16.475Z,9.88
2022-09-06T01:02:20.265Z,9.81
2022-09-06T01:04:24.312Z,9.88
2022-09-06T01:06:32.646Z,9.87
2022-09-06T01:08:44.004Z,9.85
2022-09-06T01:11:16.352Z,9.85
2022-09-06T01:13:29.012Z,9.84
2022-09-06T01:15:56.253Z,9.85
2022-09-06T01:18:22.213Z,9.85
2022-09-06T01:20:33.907Z,9.87
2022-09-06T01:23:06.967Z,9.89
2022-09-06T01:25:28.190Z,9.89
2022-09-06T01:27:58.958Z,9.89
2022-09-06T01:30:10.435Z,9.87
2022-09-06T01:32:26.607Z,9.90
2022-09-06T01:34:45.131Z,9.89
2022-09-06T01:37:09.367Z,9.88
2022-09-06T01:39:23.503Z,9.90
2022-09-06T01:41:26.539Z,9.88
2022-09-06T01:43:37.494Z,9.86
2022-09-06T01:46:02.160Z,9.88
2022-09-06T01:48:21.201Z,9.88
2022-09-06T01:51:00.595Z,9.85
2022-09-06T01:53:21.432Z,9.84
2022-09-06T01:55:49.953Z,9.86
2022-09-06T01:57:58.968Z,9.86
2022-09-06T02:00:10.528Z,9.83
2022-09-06T02:02:48.792Z,9.87
2022-09-06T02:04:58.581Z,9.87
2022-09-06T02:07:08.982Z,9.89
2022-09-06T02:09:23.603Z,9.91
2022-09-06T02:11:29.567Z,9.94
2022-09-06T02:14:01.772Z,9.98
2022-09-06T02:16:08.740Z,9.99
2022-09-06T02:18:19.998Z,10.01
2022-09-06T02:20:31.135Z,10.02
2022-09-06T02:22:42.336Z,10.06
2022-09-06T02:24:47.761Z,10.07
2022-09-06T02:26:51.296Z,10.05
2022-09-06T02:28:54.442Z,10.09
2022-09-06T02:31:02.895Z,10.11
2022-09-06T02:33:11.426Z,10.08
2022-09-06T02:35:16.852Z,10.13
2022-09-06T02:37:19.894Z,10.15
2022-09-06T02:39:22.921Z,10.17
2022-09-06T02:41:26.690Z,10.19
2022-09-06T02:43:29.661Z,10.20
2022-09-06T02:45:32.735Z,10.20
2022-09-06T02:47:35.367Z,10.23
2022-09-06T02:49:38.083Z,10.24
2022-09-06T02:51:40.964Z,10.28
2022-09-06T02:53:43.970Z,10.29
2022-09-06T02:55:48.962Z,10.31
2022-09-06T02:57:52.281Z,10.32
2022-09-06T02:59:54.894Z,10.35
2022-09-06T03:01:57.823Z,10.39
2022-09-06T03:04:01.694Z,10.35
2022-09-06T03:06:04.460Z,10.33
2022-09-06T03:08:07.240Z,10.39
2022-09-06T03:10:10.103Z,10.40
2022-09-06T03:12:13.210Z,10.37
2022-09-06T03:14:17.253Z,10.35
2022-09-06T03:16:21.317Z,10.37
2022-09-06T03:18:25.239Z,10.36
2022-09-06T03:20:27.861Z,10.38
2022-09-06T03:22:31.029Z,10.40
2022-09-06T03:24:33.826Z,10.42
2022-09-06T03:26:36.454Z,10.42
2022-09-06T03:28:39.941Z,10.42
2022-09-06T03:30:45.515Z,10.42
2022-09-06T03:32:48.203Z,10.48
2022-09-06T03:34:50.861Z,10.51
2022-09-06T03:36:53.458Z,10.55
2022-09-06T03:38:56.062Z,10.60
2022-09-06T03:40:59.072Z,10.62
2022-09-06T03:43:01.662Z,10.73
2022-09-06T03:45:05.880Z,10.80
2022-09-06T03:47:08.751Z,10.83
2022-09-06T03:49:11.319Z,10.85
2022-09-06T03:51:13.933Z,10.94
2022-09-06T03:53:18.785Z,11.00
2022-09-06T03:55:21.383Z,11.08
2022-09-06T03:57:24.015Z,11.22
2022-09-06T03:59:26.745Z,11.30
2022-09-06T04:01:29.584Z,11.44
2022-09-06T04:03:33.099Z,11.62
2022-09-06T04:05:36.286Z,11.78
2022-09-06T04:07:39.226Z,11.94
2022-09-06T04:09:41.881Z,12.04
2022-09-06T04:11:45.197Z,12.07
2022-09-06T04:13:48.302Z,12.18
2022-09-06T04:15:51.311Z,12.11
2022-09-06T04:17:54.049Z,12.16
2022-09-06T04:19:56.755Z,12.15
2022-09-06T04:21:59.667Z,12.17
2022-09-06T04:24:02.952Z,12.24
2022-09-06T04:26:05.716Z,12.24
2022-09-06T04:28:08.399Z,12.26
2022-09-06T04:30:11.273Z,12.11
2022-09-06T04:32:14.084Z,12.13
2022-09-06T04:34:16.768Z,12.11
2022-09-06T04:36:19.490Z,12.13
2022-09-06T04:38:22.132Z,12.14
2022-09-06T04:40:24.871Z,12.16
2022-09-06T04:42:27.589Z,12.23
2022-09-06T04:44:30.327Z,12.26
2022-09-06T04:46:33.087Z,12.29
2022-09-06T04:48:35.753Z,12.32
2022-09-06T04:50:39.328Z,12.45
2022-09-06T04:52:41.855Z,12.53
2022-09-06T04:54:44.615Z,12.55
2022-09-06T04:56:47.393Z,12.67
2022-09-06T04:58:50.949Z,12.70
2022-09-06T05:00:54.054Z,12.80
2022-09-06T05:02:56.659Z,12.87
2022-09-06T05:04:59.321Z,12.83
2022-09-06T05:07:08.850Z,12.84
2022-09-06T05:09:11.728Z,12.89
2022-09-06T05:11:14.451Z,12.92
2022-09-06T05:13:17.051Z,12.92
2022-09-06T05:15:20.904Z,13.03
2022-09-06T05:17:23.719Z,13.14
2022-09-06T05:19:26.548Z,13.26
2022-09-06T05:21:29.343Z,13.28
2022-09-06T05:23:32.008Z,13.20
2022-09-06T05:25:34.608Z,13.19
2022-09-06T05:27:37.238Z,13.20
2022-09-06T05:29:39.984Z,13.14
2022-09-06T05:31:42.904Z,13.09
2022-09-06T05:33:45.503Z,13.06
2022-09-06T05:35:49.327Z,12.92
2022-09-06T05:37:51.883Z,12.79
2022-09-06T05:39:54.614Z,12.62
2022-09-06T05:41:57.667Z,12.54
2022-09-06T05:44:00.404Z,12.41
2022-09-06T05:46:03.653Z,12.37
2022-09-06T05:48:06.693Z,12.37
2022-09-06T05:50:10.251Z,12.38
2022-09-06T05:52:13.290Z,12.25
2022-09-06T05:54:15.966Z,12.18
2022-09-06T05:56:19.264Z,12.17
2022-09-06T05:58:21.921Z,12.21
2022-09-06T06:00:25.570Z,12.45
2022-09-06T06:02:28.244Z,12.57
2022-09-06T06:04:30.915Z,12.61
2022-09-06T06:06:34.917Z,12.56
2022-09-06T06:08:37.615Z,12.46
2022-09-06T06:10:42.919Z,12.48
2022-09-06T06:12:45.646Z,12.51
2022-09-06T06:14:48.759Z,12.71
2022-09-06T06:16:52.136Z,12.93
2022-09-06T06:18:55.100Z,13.05
2022-09-06T06:21:12.838Z,13.14
2022-09-06T06:23:16.239Z,13.21
2022-09-06T06:25:23.158Z,12.97
2022-09-06T06:27:25.742Z,12.82
2022-09-06T06:29:28.323Z,12.75
2022-09-06T06:31:32.609Z,12.68
2022-09-06T06:33:36.547Z,12.56
2022-09-06T06:35:40.221Z,12.57
2022-09-06T06:37:42.796Z,12.45
2022-09-06T06:39:45.552Z,12.00
2022-09-06T06:41:50.851Z,11.55
2022-09-06T06:43:58.853Z,10.77
2022-09-06T06:46:01.567Z,10.24
2022-09-06T06:48:04.253Z,9.83
2022-09-06T06:50:07.114Z,9.50
2022-09-06T06:52:09.758Z,9.35
2022-09-06T06:54:12.639Z,9.21
2022-09-06T06:56:19.337Z,9.10
2022-09-06T06:58:22.013Z,9.04
2022-09-06T07:00:28.137Z,9.00
2022-09-06T07:02:30.980Z,9.03
2022-09-06T07:04:33.692Z,9.03
2022-09-06T07:09:18.400Z,9.09
2022-09-06T07:11:24.308Z,9.09
2022-09-06T07:13:27.722Z,9.10
2022-09-06T07:15:30.654Z,9.09
2022-09-06T07:17:34.853Z,9.16
2022-09-06T07:22:04.373Z,9.08
2022-09-06T07:24:09.367Z,9.16
2022-09-06T07:26:19.581Z,9.27
2022-09-06T07:28:24.027Z,9.47
2022-09-06T07:30:26.800Z,9.59
2022-09-06T07:32:31.776Z,9.67
2022-09-06T07:34:38.425Z,9.61
2022-09-06T07:36:41.063Z,9.47
2022-09-06T07:38:43.757Z,9.57
2022-09-06T07:40:54.451Z,9.47
2022-09-06T07:43:00.617Z,9.57
2022-09-06T07:45:03.221Z,9.52
2022-09-06T07:49:34.757Z,9.48
2022-09-06T07:51:37.829Z,9.49
2022-09-06T07:53:42.491Z,9.56
2022-09-06T07:55:45.215Z,9.58
2022-09-06T07:57:47.897Z,9.66
2022-09-06T07:59:51.284Z,9.77
2022-09-06T08:01:54.006Z,9.85
2022-09-06T08:04:02.950Z,9.92
2022-09-06T08:10:36.054Z,10.39
2022-09-06T08:12:38.716Z,10.55
2022-09-06T08:14:41.275Z,10.63
2022-09-06T08:16:43.991Z,10.76
2022-09-06T08:18:51.760Z,10.94
2022-09-06T08:20:54.430Z,11.06
2022-09-06T08:22:57.521Z,11.07
2022-09-06T08:25:00.347Z,11.16
2022-09-06T08:27:03.950Z,11.20
2022-09-06T08:29:09.327Z,11.37
2022-09-06T08:31:14.383Z,11.56
2022-09-06T08:33:20.425Z,11.64
2022-09-06T08:35:23.059Z,11.76
2022-09-06T08:37:25.666Z,11.84
2022-09-06T08:39:28.401Z,11.69
2022-09-06T08:42:07.579Z,11.75
2022-09-06T08:46:58.452Z,11.63
2022-09-06T08:49:01.337Z,11.65
2022-09-06T08:51:06.938Z,11.69
2022-09-06T08:53:18.288Z,11.80
2022-09-06T08:55:33.639Z,12.01
2022-09-06T08:58:01.442Z,12.22
2022-09-06T09:00:11.803Z,12.39
2022-09-06T09:02:21.061Z,12.43
2022-09-06T09:04:26.943Z,12.38
2022-09-06T09:06:33.065Z,12.46
2022-09-06T09:08:53.468Z,12.59
2022-09-06T09:11:08.504Z,12.75
2022-09-06T09:13:29.458Z,12.84
2022-09-06T09:15:33.585Z,12.98
2022-09-06T09:17:39.501Z,13.11
2022-09-06T09:19:42.996Z,13.22
2022-09-06T09:21:46.516Z,13.20
2022-09-06T09:23:55.631Z,13.26
2022-09-06T09:26:06.358Z,13.56
2022-09-06T09:28:17.902Z,13.94
2022-09-06T09:32:51.792Z,14.49
2022-09-06T09:34:54.592Z,14.70
2022-09-06T09:39:51.011Z,14.82
2022-09-06T09:41:55.590Z,15.05
2022-09-06T09:44:05.240Z,15.40
2022-09-06T09:46:23.089Z,15.65
2022-09-06T09:48:27.934Z,15.69
2022-09-06T09:50:35.405Z,15.59
2022-09-06T09:52:44.049Z,15.42
2022-09-06T09:54:48.011Z,15.32
2022-09-06T09:56:55.804Z,15.13
2022-09-06T09:58:59.219Z,14.87
2022-09-06T10:01:23.169Z,14.77
2022-09-06T10:03:28.608Z,14.03
2022-09-06T10:05:32.028Z,13.45
2022-09-06T10:07:35.613Z,12.94
2022-09-06T10:09:41.762Z,12.41
2022-09-06T10:11:59.839Z,11.95
2022-09-06T10:14:29.837Z,11.48
2022-09-06T10:16:47.404Z,11.13
2022-09-06T10:18:53.087Z,10.98
2022-09-06T10:21:03.356Z,10.87
2022-09-06T10:23:11.259Z,10.79
2022-09-06T10:25:20.185Z,10.60
2022-09-06T10:27:29.154Z,10.36
2022-09-06T10:30:05.447Z,10.11
2022-09-06T10:32:13.892Z,10.00
2022-09-06T10:34:24.625Z,9.80
2022-09-06T10:36:40.385Z,9.67
2022-09-06T10:39:03.770Z,9.53
2022-09-06T10:41:25.663Z,9.40
2022-09-06T10:43:36.772Z,9.36
2022-09-06T10:45:47.344Z,9.45
2022-09-06T10:48:14.927Z,9.53
2022-09-06T10:50:18.259Z,9.57
2022-09-06T10:52:32.863Z,9.64
2022-09-06T10:54:41.163Z,9.70
2022-09-06T10:56:52.694Z,9.69
2022-09-06T11:01:44.599Z,9.62
2022-09-06T11:03:58.540Z,9.55
2022-09-06T11:06:09.431Z,9.58
2022-09-06T11:10:45.933Z,9.82
2022-09-06T11:12:56.116Z,9.93
2022-09-06T11:15:05.393Z,10.02
2022-09-06T11:17:14.201Z,10.13
2022-09-06T11:19:26.716Z,10.18
2022-09-06T11:22:10.444Z,10.29
2022-09-06T11:24:30.166Z,10.45
2022-09-06T11:27:11.466Z,10.68
2022-09-06T11:29:26.973Z,10.91
2022-09-06T11:34:26.905Z,11.28
2022-09-06T11:36:38.700Z,11.49
2022-09-06T11:38:42.654Z,11.47
2022-09-06T11:41:06.341Z,11.53
2022-09-06T11:43:35.337Z,11.53
2022-09-06T11:45:52.166Z,11.56
2022-09-06T11:47:56.052Z,11.70
2022-09-06T11:49:58.744Z,11.84
2022-09-06T11:52:01.758Z,11.82
2022-09-06T11:54:28.553Z,11.90
2022-09-06T11:56:36.976Z,12.08
2022-09-06T11:58:42.507Z,12.19
2022-09-06T12:00:47.137Z,12.24
2022-09-06T12:02:51.666Z,12.31
2022-09-06T12:05:07.320Z,12.47
2022-09-06T12:07:12.883Z,12.55
2022-09-06T12:09:32.596Z,12.48
2022-09-06T12:11:41.978Z,12.44
2022-09-06T12:13:56.798Z,12.43
2022-09-06T12:16:00.259Z,12.43
2022-09-06T12:18:03.070Z,12.39
2022-09-06T12:20:09.753Z,12.36
2022-09-06T12:22:31.342Z,12.29
2022-09-06T12:24:34.054Z,12.32
2022-09-06T12:26:55.816Z,12.28
2022-09-06T12:28:58.591Z,12.23
2022-09-06T12:31:02.256Z,12.25
2022-09-06T12:33:25.243Z,12.30
2022-09-06T12:37:59.566Z,12.25
2022-09-06T12:40:02.388Z,12.32
2022-09-06T12:42:11.399Z,12.32
2022-09-06T12:44:16.094Z,12.45
2022-09-06T12:46:19.402Z,12.53
2022-09-06T12:48:31.073Z,12.62
2022-09-06T12:50:33.590Z,12.62
2022-09-06T12:52:48.985Z,12.71
2022-09-06T12:54:51.622Z,12.76
2022-09-06T12:57:13.522Z,12.64
2022-09-06T12:59:17.858Z,12.70
2022-09-06T13:01:31.552Z,12.80
2022-09-06T13:03:54.176Z,12.81
2022-09-06T13:05:58.401Z,12.86
2022-09-06T13:08:03.922Z,12.95
2022-09-06T13:10:07.035Z,13.58
2022-09-06T13:12:33.998Z,14.21
2022-09-06T13:14:37.286Z,14.86
2022-09-06T13:16:48.966Z,15.34
2022-09-06T13:18:51.929Z,15.77
2022-09-06T13:21:08.396Z,16.18
2022-09-06T13:23:13.413Z,16.38
2022-09-06T13:25:26.779Z,16.46
2022-09-06T13:27:36.879Z,16.17
2022-09-06T13:29:39.671Z,16.26
2022-09-06T13:31:47.098Z,16.29
2022-09-06T13:33:57.356Z,16.13
2022-09-06T13:36:21.482Z,15.85
2022-09-06T13:38:32.597Z,15.51
2022-09-06T13:41:07.081Z,15.27
2022-09-06T13:43:12.118Z,14.94
2022-09-06T13:45:27.027Z,14.73
2022-09-06T13:47:30.176Z,14.45
2022-09-06T13:49:34.222Z,14.19
2022-09-06T13:51:39.458Z,14.01
2022-09-06T13:53:42.082Z,13.67
2022-09-06T13:55:44.871Z,13.41
2022-09-06T13:57:47.590Z,13.15
2022-09-06T13:59:50.385Z,12.84
2022-09-06T14:02:16.124Z,12.38
2022-09-06T14:04:21.717Z,12.14
2022-09-06T14:06:24.476Z,11.83
2022-09-06T14:08:43.794Z,11.61
2022-09-06T14:10:52.646Z,11.49
2022-09-06T14:12:55.346Z,11.40
2022-09-06T14:14:58.215Z,11.33
2022-09-06T14:17:01.467Z,11.32
2022-09-06T14:19:04.908Z,11.40
2022-09-06T14:21:07.920Z,11.45
2022-09-06T14:23:10.618Z,11.36
2022-09-06T14:25:13.739Z,11.27
2022-09-06T14:27:16.464Z,11.00
2022-09-06T14:29:19.255Z,10.92
2022-09-06T14:31:27.317Z,10.90
2022-09-06T14:33:31.541Z,10.77
2022-09-06T14:35:34.642Z,10.74
2022-09-06T14:37:37.958Z,10.63
2022-09-06T14:39:40.644Z,10.54
2022-09-06T14:41:43.388Z,10.56
2022-09-06T14:43:52.277Z,10.57
2022-09-06T14:45:55.037Z,10.54
2022-09-06T14:47:57.704Z,10.54
2022-09-06T14:50:01.134Z,10.67
2022-09-06T14:52:04.183Z,10.96
2022-09-06T14:54:10.582Z,11.36
2022-09-06T14:56:13.519Z,11.76
2022-09-06T14:58:16.181Z,11.71
2022-09-06T15:00:19.548Z,11.48
2022-09-06T15:02:22.308Z,11.15
2022-09-06T15:04:26.492Z,10.87
2022-09-06T15:06:31.265Z,10.70
2022-09-06T15:08:34.103Z,10.55
2022-09-06T15:10:37.195Z,10.41
2022-09-06T15:12:39.851Z,10.31
2022-09-06T15:14:43.241Z,10.19
2022-09-06T15:16:49.888Z,10.10
2022-09-06T15:18:56.290Z,10.03
2022-09-06T15:20:59.316Z,9.98
2022-09-06T15:23:24.326Z,9.92
2022-09-06T15:25:26.008Z,9.86
2022-09-06T15:27:29.654Z,9.80
2022-09-06T15:29:32.275Z,9.74
2022-09-06T15:31:35.281Z,9.72
2022-09-06T15:33:39.138Z,9.65
2022-09-06T15:35:43.397Z,9.57
2022-09-06T15:37:47.606Z,9.49
2022-09-06T15:39:50.276Z,9.49
2022-09-06T15:41:53.031Z,9.39
2022-09-06T15:43:58.817Z,9.36
2022-09-06T15:46:02.264Z,9.27
2022-09-06T15:48:04.920Z,9.19
2022-09-06T15:50:07.756Z,9.20
2022-09-06T15:52:10.942Z,9.20
2022-09-06T15:54:15.121Z,9.20
2022-09-06T15:56:18.991Z,9.19
2022-09-06T15:58:21.958Z,9.20
2022-09-06T16:00:24.829Z,9.18
2022-09-06T16:02:27.646Z,9.16
2022-09-06T16:04:30.408Z,9.14
2022-09-06T16:06:39.795Z,9.16
2022-09-06T16:08:43.214Z,9.12
2022-09-06T16:10:46.243Z,9.14
2022-09-06T16:12:52.042Z,9.15
2022-09-06T16:14:54.664Z,9.13
2022-09-06T16:16:57.639Z,9.12
2022-09-06T16:19:00.937Z,9.03
2022-09-06T16:21:15.153Z,9.02
2022-09-06T16:23:17.905Z,9.00
2022-09-06T16:25:20.669Z,8.99
2022-09-06T16:27:23.338Z,9.00
2022-09-06T16:29:26.450Z,9.01
2022-09-06T16:31:29.257Z,9.02
2022-09-06T16:33:33.890Z,9.05
2022-09-06T16:35:43.125Z,9.04
2022-09-06T16:37:45.780Z,9.02
2022-09-06T16:39:48.483Z,8.93
2022-09-06T16:41:51.132Z,9.08
2022-09-06T16:43:54.132Z,9.12
2022-09-06T16:46:03.049Z,9.12
2022-09-06T16:48:07.185Z,9.12
2022-09-06T16:50:10.033Z,9.13
2022-09-06T16:52:13.508Z,9.14
2022-09-06T16:54:17.135Z,9.16
2022-09-06T16:56:28.466Z,9.16
2022-09-06T16:58:31.377Z,9.22
2022-09-06T17:00:34.088Z,9.24
2022-09-06T17:02:36.795Z,9.23
2022-09-06T17:04:39.391Z,9.27
2022-09-06T17:06:44.790Z,9.28
2022-09-06T17:08:48.039Z,9.34
2022-09-06T17:10:50.702Z,9.36
2022-09-06T17:12:53.769Z,9.39
2022-09-06T17:14:56.542Z,9.38
2022-09-06T17:17:05.173Z,9.41
2022-09-06T17:19:09.201Z,9.40
2022-09-06T17:21:12.492Z,9.39
2022-09-06T17:23:19.207Z,9.38
2022-09-06T17:25:22.377Z,9.36
2022-09-06T17:27:25.051Z,9.35
2022-09-06T17:29:28.180Z,9.25
2022-09-06T17:31:31.080Z,9.27
2022-09-06T17:33:35.578Z,9.26
2022-09-06T17:35:38.184Z,9.15
2022-09-06T17:37:40.843Z,9.20
2022-09-06T17:39:43.538Z,9.21
2022-09-06T17:41:48.010Z,9.28
2022-09-06T17:43:51.829Z,9.32
2022-09-06T17:45:54.616Z,9.28
2022-09-06T17:47:57.401Z,9.34
2022-09-06T17:49:59.990Z,9.40
2022-09-06T17:52:02.880Z,9.39
2022-09-06T17:54:06.252Z,9.36
2022-09-06T17:56:14.456Z,9.39
2022-09-06T17:58:17.153Z,9.40
2022-09-06T18:00:19.894Z,9.39
2022-09-06T18:02:22.637Z,9.37
2022-09-06T18:04:25.365Z,9.37
2022-09-06T18:06:30.043Z,9.35
2022-09-06T18:08:32.734Z,9.36
2022-09-06T18:10:37.763Z,9.38
2022-09-06T18:12:42.675Z,9.29
2022-09-06T18:14:45.371Z,9.29
2022-09-06T18:16:52.375Z,9.20
2022-09-06T18:19:00.400Z,9.20
2022-09-06T18:21:04.780Z,9.25
2022-09-06T18:23:07.530Z,9.20
2022-09-06T18:25:10.332Z,9.18
2022-09-06T18:27:13.573Z,9.16
2022-09-06T18:29:18.592Z,9.17
2022-09-06T18:31:24.628Z,9.12
2022-09-06T18:33:28.019Z,9.10
2022-09-06T18:35:30.761Z,9.07
2022-09-06T18:37:36.813Z,9.08
2022-09-06T18:39:39.827Z,9.02
2022-09-06T18:42:01.074Z,9.00
2022-09-06T18:44:05.822Z,8.99
2022-09-06T18:46:13.322Z,8.83
2022-09-06T18:48:19.790Z,8.84
2022-09-06T18:50:22.526Z,8.85
2022-09-06T18:52:25.235Z,8.82
2022-09-06T18:54:28.052Z,8.78
2022-09-06T18:56:30.849Z,8.76
2022-09-06T18:58:33.757Z,8.71
2022-09-06T19:00:36.991Z,8.70
2022-09-06T19:02:39.701Z,8.70
2022-09-06T19:04:42.537Z,8.72
2022-09-06T19:06:45.362Z,8.70
2022-09-06T19:08:48.676Z,8.70
2022-09-06T19:11:03.485Z,8.72
2022-09-06T19:13:06.196Z,8.73
2022-09-06T19:15:09.379Z,8.70
2022-09-06T19:17:12.162Z,8.69
2022-09-06T19:19:14.973Z,8.74
2022-09-06T19:21:22.236Z,8.74
2022-09-06T19:23:25.584Z,8.77
2022-09-06T19:25:28.202Z,8.74
2022-09-06T19:27:30.923Z,8.74
2022-09-06T19:29:33.650Z,8.79
2022-09-06T19:31:38.277Z,8.79
2022-09-06T19:33:42.130Z,8.83
2022-09-06T19:36:01.182Z,8.87
2022-09-06T19:38:10.494Z,8.85
2022-09-06T19:40:13.340Z,8.86
2022-09-06T19:42:16.001Z,8.87
2022-09-06T19:44:20.870Z,8.90
2022-09-06T19:46:24.537Z,8.93
2022-09-06T19:48:28.822Z,8.96
2022-09-06T19:50:34.351Z,8.97
2022-09-06T19:52:37.090Z,8.99
2022-09-06T19:54:39.896Z,9.01
2022-09-06T19:56:43.853Z,9.03
2022-09-06T19:58:46.968Z,9.07
2022-09-06T20:00:58.582Z,9.09
2022-09-06T20:03:01.222Z,9.03
2022-09-06T20:05:04.012Z,9.04
2022-09-06T20:07:07.168Z,9.06
2022-09-06T20:09:11.016Z,9.06
2022-09-06T20:11:13.792Z,9.03
2022-09-06T20:13:16.440Z,9.03
2022-09-06T20:15:19.654Z,8.90
2022-09-06T20:17:33.771Z,8.97
2022-09-06T20:19:36.842Z,8.94
2022-09-06T20:21:39.622Z,8.92
2022-09-06T20:23:42.414Z,8.94
2022-09-06T20:25:45.288Z,8.94
2022-09-06T20:27:48.042Z,8.94
2022-09-06T20:29:50.783Z,8.93
2022-09-06T20:31:53.449Z,8.92
2022-09-06T20:33:58.264Z,8.87
2022-09-06T20:36:03.369Z,8.86
2022-09-06T20:38:06.219Z,8.81
2022-09-06T20:40:09.633Z,8.83
2022-09-06T20:42:13.673Z,8.78
2022-09-06T20:44:16.326Z,8.77
2022-09-06T20:46:21.233Z,8.77
2022-09-06T20:48:26.294Z,8.77
2022-09-06T20:50:29.042Z,8.70
2022-09-06T20:52:34.257Z,8.70
2022-09-06T20:54:37.297Z,8.64
2022-09-06T20:56:42.056Z,8.59
2022-09-06T20:58:49.811Z,8.57
2022-09-06T21:00:52.898Z,8.51
2022-09-06T21:02:55.702Z,8.47
2022-09-06T21:05:00.207Z,8.44
2022-09-06T21:07:03.632Z,8.40
2022-09-06T21:09:10.553Z,8.42
2022-09-06T21:11:13.521Z,8.45
2022-09-06T21:13:16.402Z,8.48
2022-09-06T21:15:19.028Z,8.53
2022-09-06T21:17:21.648Z,8.50
2022-09-06T21:19:25.559Z,8.52
2022-09-06T21:21:29.908Z,8.50
2022-09-06T21:23:35.147Z,8.51
2022-09-06T21:25:37.936Z,8.55
2022-09-06T21:27:40.701Z,8.54
2022-09-06T21:29:43.479Z,8.57
2022-09-06T21:31:46.213Z,8.60
2022-09-06T21:33:54.011Z,8.61
2022-09-06T21:36:07.912Z,8.57
2022-09-06T21:38:10.688Z,8.52
2022-09-06T21:40:13.457Z,8.52
2022-09-06T21:42:18.647Z,8.51
2022-09-06T21:44:21.626Z,8.47
2022-09-06T21:46:31.712Z,8.45
2022-09-06T21:48:49.081Z,8.43
2022-09-06T21:50:51.985Z,8.40
2022-09-06T21:52:55.213Z,8.42
2022-09-06T21:54:57.947Z,8.42
2022-09-06T21:57:00.548Z,8.32
2022-09-06T21:59:04.068Z,8.37
2022-09-06T22:01:07.134Z,8.34
2022-09-06T22:03:10.250Z,8.34
2022-09-06T22:05:12.855Z,8.32
2022-09-06T22:07:15.544Z,8.33
2022-09-06T22:09:18.306Z,8.29
2022-09-06T22:11:32.381Z,8.31
2022-09-06T22:13:35.352Z,8.17
2022-09-06T22:15:38.849Z,8.29
2022-09-06T22:17:41.617Z,8.27
2022-09-06T22:19:44.323Z,8.24
2022-09-06T22:21:47.093Z,8.24
2022-09-06T22:23:54.094Z,8.23
2022-09-06T22:26:09.103Z,8.22
2022-09-06T22:28:11.801Z,8.19
2022-09-06T22:30:14.742Z,8.18
2022-09-06T22:32:17.993Z,8.17
2022-09-06T22:34:20.699Z,8.16
2022-09-06T22:36:24.365Z,8.16
2022-09-06T22:38:31.251Z,8.16
2022-09-06T22:40:34.058Z,8.13
2022-09-06T22:42:36.702Z,8.09
2022-09-06T22:44:39.399Z,8.15
2022-09-06T22:46:42.147Z,8.10
2022-09-06T22:48:45.000Z,8.13
2022-09-06T22:50:47.788Z,8.15
2022-09-06T22:52:50.499Z,8.16
2022-09-06T22:54:53.205Z,8.16
2022-09-06T22:56:55.975Z,8.19
2022-09-06T22:58:59.513Z,8.18
2022-09-06T23:01:13.647Z,8.19
2022-09-06T23:03:16.547Z,8.20
2022-09-06T23:05:19.628Z,8.23
2022-09-06T23:07:22.334Z,8.20
2022-09-06T23:09:25.079Z,8.22
2022-09-06T23:11:28.120Z,8.19
2022-09-06T23:13:31.199Z,8.22
2022-09-06T23:15:38.495Z,8.13
2022-09-06T23:17:41.185Z,8.24
2022-09-06T23:19:43.882Z,8.24
2022-09-06T23:21:46.714Z,8.23
2022-09-06T23:23:51.537Z,8.23
2022-09-06T23:25:54.418Z,8.23
2022-09-06T23:27:59.796Z,8.18
2022-09-06T23:30:03.796Z,8.19
2022-09-06T23:32:07.245Z,8.16
2022-09-06T23:34:09.857Z,8.14
2022-09-06T23:36:14.932Z,8.11
2022-09-06T23:38:17.668Z,8.06
2022-09-06T23:40:20.760Z,8.09
2022-09-06T23:42:23.545Z,8.08
2022-09-06T23:44:26.238Z,8.05
2022-09-06T23:46:29.762Z,8.07
2022-09-06T23:48:32.826Z,8.02
2022-09-06T23:50:35.480Z,7.99
2022-09-06T23:52:38.168Z,8.02
2022-09-06T23:54:40.832Z,7.98
2022-09-06T23:56:43.833Z,7.99
2022-09-06T23:58:46.507Z,7.97
